Time;durP1;ratioP1;P1;durP2;ratioP2;P2;SDS_P1;SDS_P2;PMS_P1;PMS_P2;Temp;Humidity;BMP_temperature;BMP_pressure;BME280_temperature;BME280_humidity;BME280_pressure;Samples;Min_cycle;Max_cycle;Signal;HPM_P1;HPM_P2
2022/11/07 00:01:29;0.00;0.00;0.62;0.00;0.00;0.62;1.70;1.30;;;25.90;24.80;;;;;;2260215;61;20364;-63
2022/11/07 00:04:14;0.00;0.00;0.62;0.00;0.00;0.62;1.50;1.00;;;25.90;24.80;;;;;;2259578;61;20971;-64
2022/11/07 00:07:00;0.00;0.00;0.62;0.00;0.00;0.62;2.40;1.60;;;25.90;24.80;;;;;;2259978;61;20873;-65
2022/11/07 00:09:44;0.00;0.00;0.62;0.00;0.00;0.62;2.10;1.40;;;25.90;24.80;;;;;;2259433;61;20368;-64
2022/11/07 00:12:30;0.00;0.00;0.62;0.00;0.00;0.62;1.90;1.40;;;25.90;24.80;;;;;;2258968;61;20400;-63
2022/11/07 00:15:15;0.00;0.00;0.62;0.00;0.00;0.62;1.80;1.40;;;25.90;24.80;;;;;;2260341;61;20435;-62
2022/11/07 00:18:01;0.00;0.00;0.62;0.00;0.00;0.62;1.67;1.30;;;25.80;24.70;;;;;;2259353;61;20763;-63
2022/11/07 00:20:46;0.00;0.00;0.62;0.00;0.00;0.62;1.60;1.00;;;25.80;24.70;;;;;;2260574;61;20376;-63
2022/11/07 00:23:31;0.00;0.00;0.62;0.00;0.00;0.62;1.40;1.20;;;25.80;25.30;;;;;;2261913;61;20844;-64
2022/11/07 00:26:16;0.00;0.00;0.62;0.00;0.00;0.62;1.90;1.30;;;25.80;24.70;;;;;;2260709;61;20380;-64
2022/11/07 00:29:01;0.00;0.00;0.62;0.00;0.00;0.62;1.97;1.63;;;25.80;24.70;;;;;;2261012;61;20427;-62
2022/11/07 00:31:47;0.00;0.00;0.62;0.00;0.00;0.62;1.93;1.10;;;25.80;24.70;;;;;;2261035;61;20392;-63
2022/11/07 00:34:34;0.00;0.00;0.62;0.00;0.00;0.62;1.73;1.13;;;25.80;24.80;;;;;;2260775;61;20931;-63
2022/11/07 00:37:18;0.00;0.00;0.62;0.00;0.00;0.62;1.60;1.00;;;25.80;24.80;;;;;;2261572;61;20422;-62
2022/11/07 00:40:05;0.00;0.00;0.62;0.00;0.00;0.62;1.63;1.20;;;25.80;24.80;;;;;;2260678;61;20360;-64
2022/11/07 00:42:49;0.00;0.00;0.62;0.00;0.00;0.62;1.73;1.10;;;25.80;24.80;;;;;;2260884;61;20393;-63
2022/11/07 00:45:34;0.00;0.00;0.62;0.00;0.00;0.62;1.47;1.00;;;25.80;24.80;;;;;;2261521;61;20356;-63
2022/11/07 00:48:19;0.00;0.00;0.62;0.00;0.00;0.62;1.90;1.03;;;25.80;24.80;;;;;;2260312;61;20452;-62
2022/11/07 00:51:08;0.00;0.00;0.62;0.00;0.00;0.62;1.80;1.00;;;25.80;24.80;;;;;;2260908;61;20458;-62
2022/11/07 00:53:53;0.00;0.00;0.62;0.00;0.00;0.62;1.67;1.10;;;25.70;24.80;;;;;;2260613;61;20396;-65
2022/11/07 00:56:38;0.00;0.00;0.62;0.00;0.00;0.62;1.80;1.10;;;25.80;24.80;;;;;;2261410;61;20392;-62
2022/11/07 00:59:23;0.00;0.00;0.62;0.00;0.00;0.62;1.80;1.20;;;25.80;24.90;;;;;;2261658;61;20938;-63
2022/11/07 01:02:07;0.00;0.00;0.62;0.00;0.00;0.62;1.50;0.80;;;25.70;24.80;;;;;;2260436;61;20364;-63
2022/11/07 01:05:11;0.00;0.00;0.62;0.00;0.00;0.62;1.80;1.20;;;25.70;24.90;;;;;;2260931;61;20857;-64
2022/11/07 01:07:57;0.00;0.00;0.62;0.00;0.00;0.62;2.10;1.30;;;25.70;24.90;;;;;;2258268;61;20415;-65
2022/11/07 01:10:42;0.00;0.00;0.62;0.00;0.00;0.62;1.90;1.20;;;25.70;24.90;;;;;;2260741;61;20434;-65
2022/11/07 01:13:27;0.00;0.00;0.62;0.00;0.00;0.62;1.60;1.07;;;25.70;24.90;;;;;;2260783;61;20388;-64
2022/11/07 01:16:12;0.00;0.00;0.62;0.00;0.00;0.62;1.53;1.03;;;25.70;24.90;;;;;;2260683;61;20476;-65
2022/11/07 01:18:57;0.00;0.00;0.62;0.00;0.00;0.62;1.40;0.97;;;25.70;24.90;;;;;;2260499;61;20441;-65
2022/11/07 01:21:42;0.00;0.00;0.62;0.00;0.00;0.62;1.50;1.00;;;25.70;25.40;;;;;;2261419;61;20415;-63
2022/11/07 01:24:28;0.00;0.00;0.62;0.00;0.00;0.62;1.70;1.07;;;25.70;24.90;;;;;;2504330;53;20384;-63
2022/11/07 01:27:13;0.00;0.00;0.62;0.00;0.00;0.62;1.40;0.90;;;25.70;25.00;;;;;;2260507;61;20469;-65
2022/11/07 01:29:58;0.00;0.00;0.62;0.00;0.00;0.62;1.60;0.90;;;25.70;25.00;;;;;;2260955;61;20364;-63
2022/11/07 01:32:43;0.00;0.00;0.62;0.00;0.00;0.62;1.63;1.10;;;25.70;25.00;;;;;;2259421;61;20392;-65
2022/11/07 01:35:28;0.00;0.00;0.62;0.00;0.00;0.62;1.50;1.03;;;25.70;25.00;;;;;;2260151;61;20905;-64
2022/11/07 01:38:12;0.00;0.00;0.62;0.00;0.00;0.62;1.90;1.30;;;25.70;25.00;;;;;;2260500;61;20884;-64
2022/11/07 01:44:42;0.00;0.00;0.62;0.00;0.00;0.62;1.60;1.00;;;25.70;25.00;;;;;;2260005;61;20969;-65
2022/11/07 01:47:34;0.00;0.00;0.62;0.00;0.00;0.62;1.70;1.00;;;25.70;25.10;;;;;;2260022;61;20927;-65
2022/11/07 01:50:19;0.00;0.00;0.62;0.00;0.00;0.62;1.80;1.10;;;25.70;25.00;;;;;;2260157;61;20826;-65
2022/11/07 01:53:04;0.00;0.00;0.62;0.00;0.00;0.62;1.50;1.03;;;25.70;25.00;;;;;;2259840;61;20392;-63
2022/11/07 01:55:48;0.00;0.00;0.62;0.00;0.00;0.62;1.73;0.97;;;25.60;25.00;;;;;;2260705;61;20377;-63
2022/11/07 01:58:34;0.00;0.00;0.62;0.00;0.00;0.62;1.50;1.00;;;25.60;25.00;;;;;;2260537;61;20373;-67
2022/11/07 02:01:19;0.00;0.00;0.62;0.00;0.00;0.62;1.40;0.97;;;25.60;25.00;;;;;;2259597;61;20400;-64
2022/11/07 02:04:05;0.00;0.00;0.62;0.00;0.00;0.62;1.40;0.97;;;25.60;25.60;;;;;;2259933;61;20380;-65
2022/11/07 02:06:54;0.00;0.00;0.62;0.00;0.00;0.62;1.40;0.87;;;25.60;25.10;;;;;;2260690;61;20496;-67
2022/11/07 02:09:43;0.00;0.00;0.62;0.00;0.00;0.62;2.07;1.20;;;25.60;25.60;;;;;;2260058;61;20412;-66
2022/11/07 02:12:28;0.00;0.00;0.62;0.00;0.00;0.62;1.50;0.93;;;25.60;25.10;;;;;;2259447;61;20396;-64
2022/11/07 02:15:15;0.00;0.00;0.62;0.00;0.00;0.62;1.57;1.00;;;25.60;25.10;;;;;;2260351;61;20465;-67
2022/11/07 02:18:00;0.00;0.00;0.62;0.00;0.00;0.62;1.50;0.80;;;25.60;25.10;;;;;;2260689;61;20457;-66
2022/11/07 02:20:46;0.00;0.00;0.62;0.00;0.00;0.62;1.90;1.00;;;25.60;25.10;;;;;;2260480;61;20396;-67
2022/11/07 02:23:40;0.00;0.00;0.62;0.00;0.00;0.62;1.50;0.80;;;25.60;25.10;;;;;;2259869;61;20411;-68
2022/11/07 02:26:27;0.00;0.00;0.62;0.00;0.00;0.62;1.90;1.10;;;25.60;25.10;;;;;;2260114;61;20461;-64
2022/11/07 02:29:12;0.00;0.00;0.62;0.00;0.00;0.62;1.30;0.90;;;25.60;25.10;;;;;;2260305;61;20930;-64
2022/11/07 02:32:02;0.00;0.00;0.62;0.00;0.00;0.62;1.40;0.80;;;25.60;25.10;;;;;;2259398;61;20417;-69
2022/11/07 02:34:55;0.00;0.00;0.62;0.00;0.00;0.62;1.50;1.00;;;25.60;25.10;;;;;;2259918;61;20373;-64
2022/11/07 02:37:40;0.00;0.00;0.62;0.00;0.00;0.62;1.50;0.90;;;25.60;25.10;;;;;;2260006;61;20369;-64
2022/11/07 02:40:26;0.00;0.00;0.62;0.00;0.00;0.62;1.80;1.27;;;25.60;25.20;;;;;;2259994;61;20549;-67
2022/11/07 02:43:15;0.00;0.00;0.62;0.00;0.00;0.62;1.80;1.20;;;25.60;25.20;;;;;;2260327;61;20984;-66
2022/11/07 02:46:06;0.00;0.00;0.62;0.00;0.00;0.62;2.77;1.33;;;25.60;25.10;;;;;;2259878;61;20453;-63
2022/11/07 02:51:43;0.00;0.00;0.62;0.00;0.00;0.62;2.33;1.40;;;25.50;24.80;;;;;;2399772;56;20406;-66
2022/11/07 02:54:28;0.00;0.00;0.62;0.00;0.00;0.62;1.80;1.23;;;25.50;24.80;;;;;;2247994;61;20464;-63
2022/11/07 02:57:13;0.00;0.00;0.62;0.00;0.00;0.62;5.07;1.17;;;25.40;24.70;;;;;;2240726;61;20361;-65
2022/11/07 02:59:59;0.00;0.00;0.62;0.00;0.00;0.62;2.80;1.40;;;25.40;24.60;;;;;;2239317;61;20364;-65
2022/11/07 03:02:45;0.00;0.00;0.62;0.00;0.00;0.62;1.83;1.07;;;25.30;24.60;;;;;;2525705;46;20390;-65
2022/11/07 03:05:30;0.00;0.00;0.62;0.00;0.00;0.62;3.10;1.30;;;25.30;24.60;;;;;;2240533;61;20361;-65
2022/11/07 03:08:14;0.00;0.00;0.62;0.00;0.00;0.62;5.17;1.80;;;25.20;24.50;;;;;;2239407;61;20478;-67
2022/11/07 03:10:59;0.00;0.00;0.62;0.00;0.00;0.62;3.17;1.50;;;25.10;24.50;;;;;;2240707;61;20394;-65
2022/11/07 03:13:44;0.00;0.00;0.62;0.00;0.00;0.62;2.13;1.40;;;25.10;24.50;;;;;;2239763;61;20353;-67
2022/11/07 03:16:30;0.00;0.00;0.62;0.00;0.00;0.62;2.63;1.33;;;25.00;24.50;;;;;;2240044;61;20366;-66
2022/11/07 03:19:15;0.00;0.00;0.62;0.00;0.00;0.62;5.17;1.30;;;25.00;24.60;;;;;;2240717;61;20449;-65
2022/11/07 03:22:00;0.00;0.00;0.62;0.00;0.00;0.62;3.93;1.40;;;24.90;24.50;;;;;;2238980;61;20449;-66
2022/11/07 03:24:44;0.00;0.00;0.62;0.00;0.00;0.62;5.83;1.87;;;24.90;25.10;;;;;;2240588;61;20365;-67
2022/11/07 03:27:29;0.00;0.00;0.62;0.00;0.00;0.62;3.37;1.50;;;24.80;24.50;;;;;;2240504;61;20373;-67
2022/11/07 03:30:14;0.00;0.00;0.62;0.00;0.00;0.62;1.67;1.13;;;24.80;24.60;;;;;;2239357;61;20365;-64
2022/11/07 03:33:01;0.00;0.00;0.62;0.00;0.00;0.62;2.10;1.53;;;24.70;24.60;;;;;;2240616;61;20401;-65
2022/11/07 03:35:46;0.00;0.00;0.62;0.00;0.00;0.62;2.23;1.30;;;24.70;24.70;;;;;;2239896;61;20833;-64
2022/11/07 03:38:32;0.00;0.00;0.62;0.00;0.00;0.62;3.60;1.17;;;24.60;24.70;;;;;;2239927;61;20369;-65
2022/11/07 03:41:16;0.00;0.00;0.62;0.00;0.00;0.62;2.37;1.60;;;24.60;24.80;;;;;;2240239;61;20397;-66
2022/11/07 03:44:01;0.00;0.00;0.62;0.00;0.00;0.62;2.60;1.27;;;24.50;24.70;;;;;;2239465;61;20917;-67
2022/11/07 03:46:46;0.00;0.00;0.62;0.00;0.00;0.62;2.10;1.10;;;24.50;24.80;;;;;;2240049;61;20365;-66
2022/11/07 03:49:32;0.00;0.00;0.62;0.00;0.00;0.62;2.23;1.57;;;24.50;24.90;;;;;;2240341;61;20405;-65
2022/11/07 03:52:16;0.00;0.00;0.62;0.00;0.00;0.62;2.27;1.33;;;24.50;24.90;;;;;;2238936;61;20485;-65
2022/11/07 03:55:01;0.00;0.00;0.62;0.00;0.00;0.62;2.10;1.20;;;24.50;24.90;;;;;;2240483;61;20362;-67
2022/11/07 03:57:46;0.00;0.00;0.62;0.00;0.00;0.62;3.50;1.70;;;24.40;24.90;;;;;;2240300;61;20373;-67
2022/11/07 04:00:31;0.00;0.00;0.62;0.00;0.00;0.62;1.80;1.20;;;24.50;25.00;;;;;;2239792;61;20366;-66
2022/11/07 04:03:16;0.00;0.00;0.62;0.00;0.00;0.62;2.20;1.20;;;24.40;24.90;;;;;;2240553;61;20393;-67
2022/11/07 04:06:02;0.00;0.00;0.62;0.00;0.00;0.62;2.43;1.50;;;24.40;25.00;;;;;;2239588;61;20369;-66
2022/11/07 04:08:47;0.00;0.00;0.62;0.00;0.00;0.62;2.03;1.30;;;24.40;25.00;;;;;;2240117;61;20373;-68
2022/11/07 04:17:38;0.00;0.00;0.62;0.00;0.00;0.62;1.70;1.03;;;24.30;25.00;;;;;;2240078;61;20442;-64
2022/11/07 04:20:23;0.00;0.00;0.62;0.00;0.00;0.62;1.67;1.13;;;24.30;25.10;;;;;;2239319;61;20453;-66
2022/11/07 04:23:09;0.00;0.00;0.62;0.00;0.00;0.62;4.40;1.50;;;24.30;25.10;;;;;;2240137;61;20425;-64
2022/11/07 04:28:59;0.00;0.00;0.62;0.00;0.00;0.62;2.10;1.30;;;24.30;25.10;;;;;;2243023;61;20400;-65
2022/11/07 04:31:43;0.00;0.00;0.62;0.00;0.00;0.62;2.23;1.17;;;24.30;25.20;;;;;;2242568;61;20481;-67
2022/11/07 04:34:28;0.00;0.00;0.62;0.00;0.00;0.62;2.50;1.53;;;24.20;25.10;;;;;;2240336;61;20365;-65
2022/11/07 04:37:12;0.00;0.00;0.62;0.00;0.00;0.62;2.57;1.20;;;24.20;25.10;;;;;;2239292;61;20467;-67
2022/11/07 04:39:58;0.00;0.00;0.62;0.00;0.00;0.62;2.43;1.10;;;24.20;25.10;;;;;;2240120;61;20365;-64
2022/11/07 04:42:43;0.00;0.00;0.62;0.00;0.00;0.62;2.03;1.03;;;24.20;25.10;;;;;;2239706;61;20425;-67
2022/11/07 04:45:28;0.00;0.00;0.62;0.00;0.00;0.62;2.37;1.40;;;24.20;25.20;;;;;;2239910;61;20373;-67
2022/11/07 04:48:12;0.00;0.00;0.62;0.00;0.00;0.62;2.57;1.20;;;24.20;25.20;;;;;;2240368;61;20871;-67
2022/11/07 04:50:57;0.00;0.00;0.62;0.00;0.00;0.62;2.30;1.07;;;24.10;25.10;;;;;;2238842;61;20958;-66
2022/11/07 04:53:42;0.00;0.00;0.62;0.00;0.00;0.62;1.90;1.03;;;24.10;25.20;;;;;;2240053;61;20364;-68
2022/11/07 04:56:28;0.00;0.00;0.62;0.00;0.00;0.62;2.20;1.20;;;24.10;25.20;;;;;;2240226;61;20404;-66
2022/11/07 04:59:13;0.00;0.00;0.62;0.00;0.00;0.62;2.23;1.50;;;24.10;25.20;;;;;;2239124;61;20375;-65
2022/11/07 05:01:58;0.00;0.00;0.62;0.00;0.00;0.62;3.50;1.57;;;24.10;25.30;;;;;;2239800;61;20381;-67
2022/11/07 05:04:42;0.00;0.00;0.62;0.00;0.00;0.62;2.17;1.00;;;24.00;25.70;;;;;;2239738;61;20353;-65
2022/11/07 05:07:27;0.00;0.00;0.62;0.00;0.00;0.62;1.77;1.03;;;24.00;25.30;;;;;;2240278;61;20444;-66
2022/11/07 05:10:18;0.00;0.00;0.62;0.00;0.00;0.62;1.80;1.30;;;24.00;25.30;;;;;;2240800;61;20415;-65
2022/11/07 05:13:04;0.00;0.00;0.62;0.00;0.00;0.62;2.00;1.10;;;24.00;25.30;;;;;;2239886;61;20964;-66
2022/11/07 05:15:49;0.00;0.00;0.62;0.00;0.00;0.62;2.40;1.00;;;24.00;25.30;;;;;;2240754;61;20369;-67
2022/11/07 05:18:34;0.00;0.00;0.62;0.00;0.00;0.62;3.33;1.40;;;24.00;25.90;;;;;;2240740;61;20361;-67
2022/11/07 05:21:18;0.00;0.00;0.62;0.00;0.00;0.62;2.40;1.37;;;24.00;25.40;;;;;;2239519;61;20498;-67
2022/11/07 05:24:04;0.00;0.00;0.62;0.00;0.00;0.62;3.30;1.57;;;24.00;25.40;;;;;;2240419;61;20389;-64
2022/11/07 05:26:48;0.00;0.00;0.62;0.00;0.00;0.62;2.20;1.10;;;23.90;25.50;;;;;;2240455;61;20365;-65
2022/11/07 05:29:36;0.00;0.00;0.62;0.00;0.00;0.62;2.50;1.40;;;23.90;25.40;;;;;;2240392;61;20471;-66
2022/11/07 05:32:21;0.00;0.00;0.62;0.00;0.00;0.62;2.00;1.10;;;23.90;25.50;;;;;;2240760;61;20449;-63
2022/11/07 05:35:07;0.00;0.00;0.62;0.00;0.00;0.62;3.30;1.33;;;23.90;25.50;;;;;;2239804;61;20394;-66
2022/11/07 05:37:52;0.00;0.00;0.62;0.00;0.00;0.62;5.17;1.33;;;23.90;25.50;;;;;;2241019;61;20378;-63
2022/11/07 05:40:38;0.00;0.00;0.62;0.00;0.00;0.62;2.33;1.43;;;23.90;25.50;;;;;;2240876;61;20409;-65
2022/11/07 05:43:23;0.00;0.00;0.62;0.00;0.00;0.62;2.70;1.20;;;23.90;25.60;;;;;;2239262;61;20454;-65
2022/11/07 05:46:10;0.00;0.00;0.62;0.00;0.00;0.62;2.80;1.40;;;23.90;25.60;;;;;;2240859;61;20365;-63
2022/11/07 05:48:55;0.00;0.00;0.62;0.00;0.00;0.62;1.90;1.20;;;23.80;25.60;;;;;;2240511;61;20409;-68
2022/11/07 05:51:41;0.00;0.00;0.62;0.00;0.00;0.62;2.30;1.33;;;23.80;25.60;;;;;;2240175;61;20397;-66
2022/11/07 05:54:26;0.00;0.00;0.62;0.00;0.00;0.62;1.77;1.13;;;23.80;25.70;;;;;;2240544;61;20369;-64
2022/11/07 05:57:11;0.00;0.00;0.62;0.00;0.00;0.62;3.93;1.37;;;23.80;25.70;;;;;;2239759;61;20381;-66
2022/11/07 05:59:56;0.00;0.00;0.62;0.00;0.00;0.62;2.40;1.23;;;23.80;25.70;;;;;;2240959;61;20469;-65
2022/11/07 06:02:42;0.00;0.00;0.62;0.00;0.00;0.62;3.33;1.30;;;23.80;25.70;;;;;;2240751;61;20385;-65
2022/11/07 06:05:28;0.00;0.00;0.62;0.00;0.00;0.62;3.47;1.93;;;23.80;25.70;;;;;;2239038;61;20412;-66
2022/11/07 06:08:14;0.00;0.00;0.62;0.00;0.00;0.62;4.57;2.43;;;23.70;25.70;;;;;;2240905;61;20404;-65
2022/11/07 06:11:03;0.00;0.00;0.62;0.00;0.00;0.62;8.77;3.13;;;23.70;25.80;;;;;;2240612;61;20429;-64
2022/11/07 06:13:48;0.00;0.00;0.62;0.00;0.00;0.62;5.03;2.90;;;23.70;25.80;;;;;;2240502;61;20450;-66
2022/11/07 06:16:32;0.00;0.00;0.62;0.00;0.00;0.62;5.10;2.50;;;23.70;25.90;;;;;;2240629;61;20366;-64
2022/11/07 06:19:19;0.00;0.00;0.62;0.00;0.00;0.62;7.17;3.10;;;23.70;25.80;;;;;;2239468;61;20368;-67
2022/11/07 06:22:03;0.00;0.00;0.62;0.00;0.00;0.62;7.07;3.23;;;23.60;25.80;;;;;;2235302;62;20418;-64
2022/11/07 06:24:48;0.00;0.00;0.62;0.00;0.00;0.62;7.27;2.63;;;23.60;25.90;;;;;;2236609;62;20777;-71
2022/11/07 06:27:33;0.00;0.00;0.62;0.00;0.00;0.62;4.57;2.20;;;23.60;25.90;;;;;;2235510;61;20370;-73
2022/11/07 06:30:18;0.00;0.00;0.62;0.00;0.00;0.62;5.30;2.33;;;23.60;25.90;;;;;;2267884;58;20812;-70
2022/11/07 06:33:05;0.00;0.00;0.62;0.00;0.00;0.62;4.20;2.10;;;23.60;26.00;;;;;;2239951;61;20422;-78
2022/11/07 06:35:51;0.00;0.00;0.62;0.00;0.00;0.62;7.73;2.20;;;23.60;26.00;;;;;;2239822;61;20405;-68
2022/11/07 06:38:36;0.00;0.00;0.62;0.00;0.00;0.62;4.73;2.50;;;23.60;26.00;;;;;;2240629;61;20454;-72
2022/11/07 06:41:20;0.00;0.00;0.62;0.00;0.00;0.62;6.73;2.40;;;23.50;26.00;;;;;;2238803;61;20390;-69
2022/11/07 06:44:05;0.00;0.00;0.62;0.00;0.00;0.62;3.77;1.93;;;23.60;26.00;;;;;;2240446;61;20417;-69
2022/11/07 06:46:50;0.00;0.00;0.62;0.00;0.00;0.62;3.17;2.00;;;23.50;26.00;;;;;;2240034;61;20365;-71
2022/11/07 06:49:34;0.00;0.00;0.62;0.00;0.00;0.62;2.40;1.60;;;23.50;26.00;;;;;;2239560;61;20845;-74
2022/11/07 06:52:20;0.00;0.00;0.62;0.00;0.00;0.62;3.07;1.90;;;23.50;26.00;;;;;;2240219;61;20396;-62
2022/11/07 06:55:07;0.00;0.00;0.62;0.00;0.00;0.62;3.00;1.70;;;23.50;26.00;;;;;;2240537;61;20373;-73
2022/11/07 06:57:51;0.00;0.00;0.62;0.00;0.00;0.62;3.20;1.87;;;23.50;26.00;;;;;;2239773;61;20474;-70
2022/11/07 07:00:37;0.00;0.00;0.62;0.00;0.00;0.62;3.93;1.67;;;23.50;26.10;;;;;;2275729;58;20362;-74
2022/11/07 07:03:22;0.00;0.00;0.62;0.00;0.00;0.62;2.77;1.10;;;23.50;26.10;;;;;;2648331;46;20814;-70
2022/11/07 07:06:12;0.00;0.00;0.62;0.00;0.00;0.62;2.50;1.80;;;23.50;26.10;;;;;;2235861;62;20370;-70
2022/11/07 07:08:58;0.00;0.00;0.62;0.00;0.00;0.62;2.23;1.33;;;23.50;26.10;;;;;;2235907;62;20411;-70
2022/11/07 07:11:44;0.00;0.00;0.62;0.00;0.00;0.62;2.37;1.70;;;23.50;26.10;;;;;;2235430;62;21056;-68
2022/11/07 07:14:29;0.00;0.00;0.62;0.00;0.00;0.62;3.43;1.70;;;23.50;26.10;;;;;;2235956;62;20380;-71
2022/11/07 07:17:13;0.00;0.00;0.62;0.00;0.00;0.62;5.10;1.50;;;23.50;26.20;;;;;;2236351;61;20503;-76
2022/11/07 07:19:58;0.00;0.00;0.62;0.00;0.00;0.62;3.10;1.50;;;23.50;26.20;;;;;;2235295;62;20411;-68
2022/11/07 07:22:43;0.00;0.00;0.62;0.00;0.00;0.62;2.23;1.50;;;23.50;26.20;;;;;;2236365;61;20386;-68
2022/11/07 07:25:30;0.00;0.00;0.62;0.00;0.00;0.62;3.40;1.77;;;23.50;26.20;;;;;;2235442;62;20406;-73
2022/11/07 07:28:15;0.00;0.00;0.62;0.00;0.00;0.62;2.90;1.60;;;23.50;26.20;;;;;;2235978;61;20414;-64
2022/11/07 07:31:21;0.00;0.00;0.62;0.00;0.00;0.62;2.20;1.40;;;23.50;26.20;;;;;;2236101;61;20458;-70
2022/11/07 07:34:06;0.00;0.00;0.62;0.00;0.00;0.62;1.90;1.30;;;23.50;26.20;;;;;;2235336;62;20378;-67
2022/11/07 07:36:52;0.00;0.00;0.62;0.00;0.00;0.62;3.43;1.80;;;23.50;26.20;;;;;;2236495;62;20415;-68
2022/11/07 07:39:37;0.00;0.00;0.62;0.00;0.00;0.62;2.70;1.33;;;23.50;26.20;;;;;;2236434;62;20366;-62
2022/11/07 07:42:23;0.00;0.00;0.62;0.00;0.00;0.62;3.07;1.50;;;23.50;26.20;;;;;;2235504;61;20386;-70
2022/11/07 07:45:10;0.00;0.00;0.62;0.00;0.00;0.62;3.30;1.33;;;23.50;26.20;;;;;;2236557;62;20539;-72
2022/11/07 07:48:01;0.00;0.00;0.62;0.00;0.00;0.62;3.20;1.50;;;23.50;26.30;;;;;;2235288;62;20796;-69
2022/11/07 07:50:47;0.00;0.00;0.62;0.00;0.00;0.62;4.30;1.43;;;23.50;26.30;;;;;;2235969;62;20875;-70
2022/11/07 07:53:32;0.00;0.00;0.62;0.00;0.00;0.62;2.93;1.37;;;23.50;26.30;;;;;;2236348;62;20438;-71
2022/11/07 07:56:17;0.00;0.00;0.62;0.00;0.00;0.62;2.73;1.57;;;23.50;26.30;;;;;;2235169;62;20786;-64
2022/11/07 07:59:03;0.00;0.00;0.62;0.00;0.00;0.62;2.03;1.10;;;23.50;26.30;;;;;;2236314;61;20414;-64
2022/11/07 08:01:48;0.00;0.00;0.62;0.00;0.00;0.62;3.60;1.40;;;23.50;26.30;;;;;;2236328;61;20394;-69
2022/11/07 08:04:32;0.00;0.00;0.62;0.00;0.00;0.62;2.83;1.53;;;23.50;26.30;;;;;;2235722;62;20786;-75
2022/11/07 08:07:17;0.00;0.00;0.62;0.00;0.00;0.62;2.60;1.17;;;23.50;26.30;;;;;;2239832;61;20884;-70
2022/11/07 08:10:02;0.00;0.00;0.62;0.00;0.00;0.62;2.07;1.10;;;23.50;26.30;;;;;;2239359;61;20424;-68
2022/11/07 08:12:49;0.00;0.00;0.62;0.00;0.00;0.62;3.10;1.20;;;23.50;26.40;;;;;;2239938;61;20404;-68
2022/11/07 08:15:36;0.00;0.00;0.62;0.00;0.00;0.62;2.93;1.53;;;23.50;26.30;;;;;;2240099;61;20362;-65
2022/11/07 08:18:22;0.00;0.00;0.62;0.00;0.00;0.62;2.93;1.53;;;23.50;26.30;;;;;;2239007;61;20377;-63
2022/11/07 08:21:07;0.00;0.00;0.62;0.00;0.00;0.62;2.03;1.07;;;23.50;26.30;;;;;;2240156;61;20372;-62
2022/11/07 08:23:53;0.00;0.00;0.62;0.00;0.00;0.62;2.40;1.50;;;23.50;26.20;;;;;;2239896;61;20432;-72
2022/11/07 08:26:38;0.00;0.00;0.62;0.00;0.00;0.62;1.93;1.10;;;23.60;26.30;;;;;;2238702;61;21114;-71
2022/11/07 08:29:23;0.00;0.00;0.62;0.00;0.00;0.62;2.10;1.20;;;23.60;26.20;;;;;;2240028;61;20462;-75
2022/11/07 08:32:09;0.00;0.00;0.62;0.00;0.00;0.62;2.67;1.30;;;23.70;26.30;;;;;;2239045;61;20413;-67
2022/11/07 08:34:53;0.00;0.00;0.62;0.00;0.00;0.62;3.63;1.53;;;23.70;26.30;;;;;;2240053;61;20840;-73
2022/11/07 08:37:38;0.00;0.00;0.62;0.00;0.00;0.62;1.67;1.00;;;23.70;26.20;;;;;;2240054;61;20940;-70
2022/11/07 08:40:22;0.00;0.00;0.62;0.00;0.00;0.62;2.40;1.07;;;23.80;26.30;;;;;;2239354;61;20908;-67
2022/11/07 08:43:07;0.00;0.00;0.62;0.00;0.00;0.62;1.60;1.03;;;23.80;26.30;;;;;;2240973;61;20396;-69
2022/11/07 08:45:53;0.00;0.00;0.62;0.00;0.00;0.62;1.80;1.20;;;23.80;26.20;;;;;;2282024;58;20393;-72
2022/11/07 08:48:40;0.00;0.00;0.62;0.00;0.00;0.62;1.63;1.07;;;23.80;26.30;;;;;;2240152;61;20901;-72
2022/11/07 08:51:25;0.00;0.00;0.62;0.00;0.00;0.62;1.60;1.10;;;23.90;26.30;;;;;;2240922;61;20428;-63
2022/11/07 08:54:10;0.00;0.00;0.62;0.00;0.00;0.62;1.70;0.90;;;23.90;26.30;;;;;;2240453;61;20897;-64
2022/11/07 08:56:55;0.00;0.00;0.62;0.00;0.00;0.62;1.97;1.30;;;24.00;26.30;;;;;;2240894;61;20396;-71
2022/11/07 08:59:39;0.00;0.00;0.62;0.00;0.00;0.62;2.90;1.30;;;24.00;26.30;;;;;;2241207;61;20758;-74
2022/11/07 09:02:24;0.00;0.00;0.62;0.00;0.00;0.62;3.10;1.80;;;24.00;26.20;;;;;;2240222;61;20385;-68
2022/11/07 09:05:10;0.00;0.00;0.62;0.00;0.00;0.62;2.30;1.30;;;24.10;26.80;;;;;;2243192;61;20365;-72
2022/11/07 09:07:55;0.00;0.00;0.62;0.00;0.00;0.62;2.20;1.33;;;24.10;26.30;;;;;;2241028;61;20382;-70
2022/11/07 09:10:40;0.00;0.00;0.62;0.00;0.00;0.62;2.17;1.20;;;24.10;26.30;;;;;;2239725;61;20377;-71
2022/11/07 09:13:25;0.00;0.00;0.62;0.00;0.00;0.62;1.80;1.20;;;24.10;26.30;;;;;;2240414;61;20495;-64
2022/11/07 09:16:10;0.00;0.00;0.62;0.00;0.00;0.62;2.23;1.20;;;24.20;26.30;;;;;;2240387;61;20372;-71
2022/11/07 09:18:54;0.00;0.00;0.62;0.00;0.00;0.62;2.53;1.33;;;24.20;26.30;;;;;;2240114;61;20368;-72
2022/11/07 09:21:41;0.00;0.00;0.62;0.00;0.00;0.62;2.10;1.30;;;24.20;26.30;;;;;;2240703;61;20428;-69
2022/11/07 09:24:26;0.00;0.00;0.62;0.00;0.00;0.62;2.20;1.30;;;24.20;26.20;;;;;;2239879;61;20381;-69
2022/11/07 09:27:10;0.00;0.00;0.62;0.00;0.00;0.62;2.23;1.20;;;24.30;26.30;;;;;;2240779;61;20401;-72
2022/11/07 09:29:55;0.00;0.00;0.62;0.00;0.00;0.62;3.33;1.70;;;24.30;26.30;;;;;;2240291;61;20373;-73
2022/11/07 09:32:39;0.00;0.00;0.62;0.00;0.00;0.62;2.33;1.50;;;24.30;26.30;;;;;;2239463;61;20401;-72
2022/11/07 09:35:24;0.00;0.00;0.62;0.00;0.00;0.62;1.90;1.37;;;24.30;26.20;;;;;;2240826;61;20373;-71
2022/11/07 09:38:10;0.00;0.00;0.62;0.00;0.00;0.62;1.80;1.27;;;24.40;26.30;;;;;;2240501;61;20369;-73
2022/11/07 09:41:05;0.00;0.00;0.62;0.00;0.00;0.62;1.97;1.40;;;24.40;26.30;;;;;;2239932;61;20372;-70
2022/11/07 09:44:19;0.00;0.00;0.62;0.00;0.00;0.62;2.07;1.27;;;24.40;26.30;;;;;;2240779;61;20397;-69
2022/11/07 09:47:19;0.00;0.00;0.62;0.00;0.00;0.62;1.80;1.30;;;24.50;26.30;;;;;;2239569;61;20385;-69
2022/11/07 09:50:13;0.00;0.00;0.62;0.00;0.00;0.62;1.63;1.10;;;24.50;26.30;;;;;;2240759;61;20369;-74
2022/11/07 09:53:06;0.00;0.00;0.62;0.00;0.00;0.62;1.63;1.10;;;24.50;26.30;;;;;;2240541;61;20393;-71
2022/11/07 09:55:56;0.00;0.00;0.62;0.00;0.00;0.62;1.60;1.10;;;24.50;26.30;;;;;;2240509;61;20366;-63
2022/11/07 09:58:43;0.00;0.00;0.62;0.00;0.00;0.62;1.90;1.30;;;24.60;26.40;;;;;;2240362;61;20413;-66
2022/11/07 10:01:31;0.00;0.00;0.62;0.00;0.00;0.62;2.53;1.60;;;24.60;26.40;;;;;;2239835;61;20385;-71
2022/11/07 10:04:19;0.00;0.00;0.62;0.00;0.00;0.62;2.50;1.77;;;24.60;26.40;;;;;;2240321;61;20370;-72
2022/11/07 10:07:13;0.00;0.00;0.62;0.00;0.00;0.62;2.17;1.30;;;24.60;26.40;;;;;;2240780;61;20369;-70
2022/11/07 10:10:05;0.00;0.00;0.62;0.00;0.00;0.62;2.30;1.50;;;24.60;26.40;;;;;;2239664;61;20773;-69
2022/11/07 10:13:23;0.00;0.00;0.62;0.00;0.00;0.62;2.53;1.70;;;24.70;26.40;;;;;;2673079;46;20794;-68
2022/11/07 10:16:15;0.00;0.00;0.62;0.00;0.00;0.62;2.23;1.60;;;24.70;26.40;;;;;;2239970;61;20503;-72
2022/11/07 10:19:20;0.00;0.00;0.62;0.00;0.00;0.62;2.37;1.80;;;24.70;26.40;;;;;;2240708;61;20369;-62
2022/11/07 10:22:18;0.00;0.00;0.62;0.00;0.00;0.62;2.57;1.57;;;24.70;26.30;;;;;;2240619;61;20777;-65
2022/11/07 10:25:23;0.00;0.00;0.62;0.00;0.00;0.62;3.50;2.00;;;24.70;26.30;;;;;;2239639;61;20417;-73
2022/11/07 10:28:16;0.00;0.00;0.62;0.00;0.00;0.62;3.50;2.03;;;24.80;26.40;;;;;;2240830;61;20373;-66
2022/11/07 10:31:05;0.00;0.00;0.62;0.00;0.00;0.62;2.80;1.97;;;24.80;26.30;;;;;;2239616;61;20409;-65
2022/11/07 10:33:55;0.00;0.00;0.62;0.00;0.00;0.62;3.07;1.60;;;24.80;26.30;;;;;;2240418;61;20486;-68
2022/11/07 10:36:40;0.00;0.00;0.62;0.00;0.00;0.62;2.93;1.93;;;24.90;26.30;;;;;;2240466;61;20901;-70
2022/11/07 10:39:25;0.00;0.00;0.62;0.00;0.00;0.62;2.70;1.80;;;24.90;26.30;;;;;;2239605;61;20413;-67
2022/11/07 10:42:14;0.00;0.00;0.62;0.00;0.00;0.62;2.47;1.90;;;24.90;26.30;;;;;;2240128;61;20381;-65
2022/11/07 10:45:00;0.00;0.00;0.62;0.00;0.00;0.62;2.90;2.00;;;24.90;26.30;;;;;;2240289;61;20373;-67
2022/11/07 10:47:56;0.00;0.00;0.62;0.00;0.00;0.62;2.67;1.80;;;24.90;26.20;;;;;;2239753;61;20377;-73
2022/11/07 10:50:51;0.00;0.00;0.62;0.00;0.00;0.62;2.73;1.90;;;24.90;26.20;;;;;;2240456;61;20437;-70
2022/11/07 10:53:43;0.00;0.00;0.62;0.00;0.00;0.62;3.27;2.10;;;25.00;26.30;;;;;;2239369;61;20397;-64
2022/11/07 10:56:28;0.00;0.00;0.62;0.00;0.00;0.62;2.80;1.97;;;25.00;26.30;;;;;;2240740;61;20416;-63
2022/11/07 10:59:13;0.00;0.00;0.62;0.00;0.00;0.62;3.60;2.53;;;25.00;26.30;;;;;;2240457;61;20366;-62
2022/11/07 11:02:00;0.00;0.00;0.62;0.00;0.00;0.62;3.80;2.57;;;25.00;26.30;;;;;;2239428;61;20389;-64
2022/11/07 11:04:49;0.00;0.00;0.62;0.00;0.00;0.62;2.83;2.00;;;25.00;26.20;;;;;;2240598;61;20404;-72
2022/11/07 11:07:37;0.00;0.00;0.62;0.00;0.00;0.62;3.57;2.00;;;25.00;26.70;;;;;;2239852;61;20827;-63
2022/11/07 11:10:25;0.00;0.00;0.62;0.00;0.00;0.62;2.20;1.50;;;25.00;26.20;;;;;;2240393;61;20809;-71
2022/11/07 11:13:25;0.00;0.00;0.62;0.00;0.00;0.62;2.70;1.90;;;25.10;26.20;;;;;;2239999;61;20446;-71